YPJT

Perth Jandakot Airport

Perth, Australia
TAF YPJT 212237Z 2200/2218 16010KT CAVOK FM220600 25014KT CAVOK FM221500 24012KT 9999 -SHRA BKN020
Issued Valid From Valid To
Jan-21 @ 22:37 UTC
(2 hours ago)
Jan-22 @ 00:00 UTC
(45 minutes ago)
Jan-22 @ 18:00 UTC
(in 17 hours)
Jan-22 @ 00:00 to Jan-22 @ 06:00
TAF YPJT 212237Z 2200/2218 16010KT CAVOK
Wind Visibility Clouds Conditions
160° at 10 knots 10,000+ meters
  • No significant clouds
From Jan-22 @ 06:00 to Jan-22 @ 15:00
FM220600 25014KT CAVOK
Wind Visibility Clouds Conditions
250° at 14 knots 10,000+ meters
  • No significant clouds
From Jan-22 @ 15:00 to Jan-22 @ 18:00
FM221500 24012KT 9999 -SHRA BKN020
Wind Visibility Clouds Conditions
240° at 12 knots 10,000+ meters
  • Broken at 2,000' AGL
  • Light Rain
TAF YPJT 212237Z 2200/2218 16010KT CAVOK FM220600 25014KT CAVOK FM221500 24012KT 9999 -SHRA BKN020
Issued Jan-21 @ 22:37 UTC
(2 hours ago)
Valid From Jan-22 @ 00:00 UTC
(45 minutes ago)
Valid To Jan-22 @ 18:00 UTC
(in 17 hours)
Jan-22 @ 00:00 - Jan-22 @ 06:00
Wind Visibility
160° at 10 knots 10,000+ meters
Clouds
  • No significant clouds
Conditions
From Jan-22 @ 06:00 - Jan-22 @ 15:00
Wind Visibility
250° at 14 knots 10,000+ meters
Clouds
  • No significant clouds
Conditions
From Jan-22 @ 15:00 - Jan-22 @ 18:00
Wind Visibility
240° at 12 knots 10,000+ meters
Clouds
  • Broken at 2,000' AGL
Conditions
  • Light Rain